Time;durP1;ratioP1;P1;durP2;ratioP2;P2;SDS_P1;SDS_P2;PMS_P1;PMS_P2;Temp;Humidity;BMP_temperature;BMP_pressure;BME280_temperature;BME280_humidity;BME280_pressure;Samples;Min_cycle;Max_cycle;Signal;HPM_P1;HPM_P2
2022/05/13 00:01:51;;;;;;;12.38;3.88;;;12.00;99.90;;;;;;5093259;28;20265;-75
2022/05/13 00:04:17;;;;;;;14.77;4.45;;;12.00;99.90;;;;;;5093236;28;20540;-75
2022/05/13 00:06:42;;;;;;;10.70;3.33;;;12.00;99.90;;;;;;5093105;28;20295;-76
2022/05/13 00:09:09;;;;;;;10.07;3.47;;;12.00;99.90;;;;;;5089912;28;20365;-76
2022/05/13 00:11:34;;;;;;;11.68;4.50;;;12.00;99.90;;;;;;5075446;28;20081;-75
2022/05/13 00:14:00;;;;;;;8.63;3.17;;;12.10;99.90;;;;;;5093076;28;20044;-76
2022/05/13 00:16:26;;;;;;;7.82;3.03;;;12.10;99.90;;;;;;5092964;28;20054;-75
2022/05/13 00:18:52;;;;;;;11.00;3.70;;;12.10;99.90;;;;;;5092950;28;20043;-75
2022/05/13 00:21:18;;;;;;;8.52;3.03;;;12.10;99.90;;;;;;5092616;28;20067;-75
2022/05/13 00:23:44;;;;;;;8.93;3.30;;;12.10;99.90;;;;;;5093004;28;20048;-75
2022/05/13 00:26:10;;;;;;;10.65;3.55;;;12.00;99.90;;;;;;5075166;28;20491;-76
2022/05/13 00:28:36;;;;;;;9.52;3.08;;;12.00;99.90;;;;;;5092943;28;20082;-76
2022/05/13 00:31:04;;;;;;;5.68;2.60;;;12.00;99.90;;;;;;5075034;28;20063;-75
2022/05/13 00:33:32;;;;;;;9.18;2.97;;;12.00;99.90;;;;;;5092679;28;20048;-75
2022/05/13 00:35:58;;;;;;;8.18;3.08;;;12.00;99.90;;;;;;5092266;28;20562;-75
2022/05/13 00:38:24;;;;;;;9.50;3.63;;;12.00;99.90;;;;;;5092796;28;20127;-74
2022/05/13 00:40:50;;;;;;;8.70;3.25;;;12.00;99.90;;;;;;5075170;28;20416;-76
2022/05/13 00:43:44;;;;;;;9.63;3.00;;;12.00;99.90;;;;;;5074855;28;20357;-77
2022/05/13 00:46:10;;;;;;;10.43;3.30;;;12.00;99.90;;;;;;5092401;28;20047;-75
2022/05/13 00:48:36;;;;;;;11.10;3.30;;;12.00;99.90;;;;;;5092112;28;20388;-74
2022/05/13 00:51:08;;;;;;;13.55;3.72;;;12.00;99.90;;;;;;5092456;28;20081;-74
2022/05/13 00:53:35;;;;;;;10.93;3.63;;;11.90;99.90;;;;;;5092405;28;20119;-77
2022/05/13 00:56:01;;;;;;;13.05;3.42;;;12.00;99.90;;;;;;5081874;28;20091;-74
2022/05/13 00:58:28;;;;;;;9.10;3.50;;;11.90;99.90;;;;;;5072167;28;20075;-76
2022/05/13 01:00:54;;;;;;;9.68;3.80;;;11.90;99.90;;;;;;5071743;28;20453;-75
2022/05/13 01:03:21;;;;;;;11.73;4.53;;;11.90;99.90;;;;;;5054460;28;20044;-76
2022/05/13 01:05:53;;;;;;;15.73;4.38;;;11.90;99.90;;;;;;5071807;28;20453;-75
2022/05/13 01:08:20;;;;;;;13.07;4.05;;;11.90;99.90;;;;;;5037994;28;20048;-76
2022/05/13 01:10:47;;;;;;;10.80;4.32;;;11.90;99.90;;;;;;5071685;28;20040;-76
2022/05/13 01:13:20;;;;;;;11.02;4.00;;;11.90;99.90;;;;;;5071862;28;20127;-76
2022/05/13 01:15:48;;;;;;;12.50;4.05;;;11.90;99.90;;;;;;5071661;28;20132;-75
2022/05/13 01:18:24;;;;;;;9.93;3.92;;;11.90;99.90;;;;;;5054793;28;20411;-75
2022/05/13 01:20:50;;;;;;;10.05;3.72;;;11.90;99.90;;;;;;5073715;28;20123;-75
2022/05/13 01:23:27;;;;;;;10.77;3.85;;;11.90;99.90;;;;;;5092159;28;20063;-75
2022/05/13 01:25:59;;;;;;;10.07;3.67;;;11.90;99.90;;;;;;5074245;28;20055;-75
2022/05/13 01:28:29;;;;;;;12.38;4.22;;;11.90;99.90;;;;;;5091671;28;20063;-74
2022/05/13 01:30:58;;;;;;;8.88;4.20;;;11.90;99.90;;;;;;5074531;28;20468;-75
2022/05/13 01:33:25;;;;;;;13.05;4.57;;;11.90;99.90;;;;;;5092000;28;20040;-76
2022/05/13 01:35:53;;;;;;;17.73;5.13;;;11.90;99.90;;;;;;5074440;28;20334;-75
2022/05/13 01:38:22;;;;;;;11.18;4.10;;;11.90;99.90;;;;;;5074455;28;20059;-76
2022/05/13 01:40:48;;;;;;;15.23;4.53;;;12.00;99.90;;;;;;5091717;28;20421;-76
2022/05/13 01:43:14;;;;;;;14.05;4.88;;;12.00;99.90;;;;;;5092187;28;20071;-76
2022/05/13 01:45:41;;;;;;;14.00;4.82;;;12.00;99.90;;;;;;5091998;28;20123;-76
2022/05/13 01:48:07;;;;;;;18.45;5.07;;;12.00;99.90;;;;;;5091743;28;20046;-75
2022/05/13 01:50:34;;;;;;;17.45;5.75;;;12.00;99.90;;;;;;5074326;28;20040;-76
2022/05/13 01:53:00;;;;;;;19.20;5.85;;;12.00;99.90;;;;;;5074133;28;20071;-74
2022/05/13 01:55:26;;;;;;;22.08;5.97;;;12.10;99.90;;;;;;5091600;28;20477;-75
2022/05/13 01:57:52;;;;;;;19.55;5.72;;;12.10;99.90;;;;;;5091491;28;20044;-75
2022/05/13 02:00:18;;;;;;;24.85;6.32;;;12.20;99.90;;;;;;5074169;28;20101;-75
2022/05/13 02:05:29;;;;;;;23.30;5.20;;;12.30;99.90;;;;;;5074094;28;20112;-76
2022/05/13 02:07:55;;;;;;;17.08;5.60;;;12.30;99.90;;;;;;5091356;28;20036;-76
2022/05/13 02:10:21;;;;;;;25.25;5.57;;;12.40;99.90;;;;;;5091915;28;20040;-75
2022/05/13 02:12:47;;;;;;;23.27;5.85;;;12.40;99.90;;;;;;5093189;28;20403;-74
2022/05/13 02:15:13;;;;;;;15.20;5.40;;;12.40;99.90;;;;;;5077841;28;20466;-76
2022/05/13 02:17:39;;;;;;;22.70;5.15;;;12.40;99.90;;;;;;5095222;28;20044;-74
2022/05/13 02:20:07;;;;;;;21.70;5.70;;;12.50;99.90;;;;;;5095194;28;20456;-76
2022/05/13 02:22:33;;;;;;;24.10;5.20;;;12.50;99.90;;;;;;5094711;28;20051;-74
2022/05/13 02:24:59;;;;;;;27.13;5.35;;;12.50;99.90;;;;;;5095430;28;20048;-74
2022/05/13 02:27:25;;;;;;;18.70;5.43;;;12.50;99.90;;;;;;5095010;28;20143;-76
2022/05/13 02:29:51;;;;;;;19.45;4.80;;;12.50;99.90;;;;;;5095131;28;20048;-76
2022/05/13 02:32:17;;;;;;;18.13;4.72;;;12.60;99.90;;;;;;5094989;28;20357;-75
2022/05/13 02:34:42;;;;;;;14.27;5.20;;;12.50;99.90;;;;;;5077379;28;20338;-74
2022/05/13 02:37:09;;;;;;;23.05;5.22;;;12.50;99.90;;;;;;5094648;28;20050;-75
2022/05/13 02:39:34;;;;;;;15.23;4.28;;;12.50;99.90;;;;;;5077402;28;20044;-76
2022/05/13 02:42:00;;;;;;;19.73;5.25;;;12.50;99.90;;;;;;5091523;28;20058;-76
2022/05/13 02:44:26;;;;;;;17.77;5.57;;;12.50;99.90;;;;;;5091883;28;20457;-76
2022/05/13 02:46:52;;;;;;;12.93;4.07;;;12.50;99.90;;;;;;5094500;28;20040;-75
2022/05/13 02:49:18;;;;;;;11.48;4.20;;;12.50;99.90;;;;;;5076864;28;20518;-76
2022/05/13 02:51:48;;;;;;;15.93;4.70;;;12.50;99.90;;;;;;5060373;28;20074;-76
2022/05/13 02:54:15;;;;;;;19.20;4.78;;;12.50;99.90;;;;;;5094954;28;20032;-75
2022/05/13 02:56:41;;;;;;;15.80;4.45;;;12.40;99.90;;;;;;5057968;28;20077;-75
2022/05/13 02:59:06;;;;;;;15.80;5.05;;;12.40;99.90;;;;;;5054225;28;20121;-75
2022/05/13 03:01:32;;;;;;;18.67;4.47;;;12.40;99.90;;;;;;5054000;28;20037;-74
2022/05/13 03:03:59;;;;;;;16.52;5.10;;;12.40;99.90;;;;;;5053952;28;20032;-75
2022/05/13 03:06:25;;;;;;;19.45;4.75;;;12.40;99.90;;;;;;5053972;28;20037;-77
2022/05/13 03:08:52;;;;;;;16.20;4.75;;;12.40;99.90;;;;;;5054058;28;20115;-74
2022/05/13 03:11:18;;;;;;;19.60;4.72;;;12.30;99.90;;;;;;5053948;28;20450;-74
2022/05/13 03:13:44;;;;;;;25.60;5.47;;;12.30;99.90;;;;;;5053879;28;20071;-75
2022/05/13 03:16:14;;;;;;;17.63;5.10;;;12.30;99.90;;;;;;5036839;28;20045;-74
2022/05/13 03:18:41;;;;;;;19.77;6.20;;;12.30;99.90;;;;;;5036325;28;20049;-76
2022/05/13 03:21:08;;;;;;;21.67;6.30;;;12.40;99.90;;;;;;5040446;28;20056;-75
2022/05/13 03:23:34;;;;;;;13.38;5.00;;;12.40;99.90;;;;;;5055562;28;20457;-74
2022/05/13 03:26:00;;;;;;;17.13;4.85;;;12.40;99.90;;;;;;5073546;28;20091;-76
2022/05/13 03:28:26;;;;;;;15.13;4.78;;;12.40;99.90;;;;;;5073535;28;20135;-76
2022/05/13 03:30:52;;;;;;;16.35;4.95;;;12.40;99.90;;;;;;5073811;28;20052;-76
2022/05/13 03:33:19;;;;;;;23.30;4.93;;;12.40;99.90;;;;;;5073419;28;20044;-76
2022/05/13 03:35:45;;;;;;;18.00;5.28;;;12.50;99.90;;;;;;5056381;28;20084;-76
2022/05/13 03:38:11;;;;;;;17.73;4.03;;;12.50;99.90;;;;;;5073530;28;20185;-75
2022/05/13 03:40:38;;;;;;;14.15;4.22;;;12.50;99.90;;;;;;5073561;28;20033;-75
2022/05/13 03:43:04;;;;;;;20.85;4.88;;;12.50;99.90;;;;;;5055800;28;20353;-75
2022/05/13 03:45:32;;;;;;;16.80;5.35;;;12.60;99.90;;;;;;5056178;28;20478;-75
2022/05/13 03:47:59;;;;;;;17.95;4.13;;;12.60;99.90;;;;;;5073185;28;20599;-75
2022/05/13 03:50:25;;;;;;;11.50;4.38;;;12.60;99.90;;;;;;5073059;28;20052;-75
2022/05/13 03:52:51;;;;;;;17.25;4.35;;;12.60;99.90;;;;;;5073223;28;20055;-75
2022/05/13 03:55:17;;;;;;;11.75;4.10;;;12.60;99.90;;;;;;5077314;28;20040;-75
2022/05/13 03:57:43;;;;;;;14.30;3.72;;;12.70;99.90;;;;;;5093099;28;20051;-75
2022/05/13 04:00:11;;;;;;;12.15;3.60;;;12.70;99.90;;;;;;5075740;28;20052;-75
2022/05/13 04:02:37;;;;;;;17.55;4.65;;;12.70;99.90;;;;;;5075443;28;20040;-74
2022/05/13 04:10:34;;;;;;;12.40;3.88;;;12.70;99.90;;;;;;5093006;28;20099;-76
2022/05/13 04:18:28;;;;;;;13.80;3.72;;;12.70;99.90;;;;;;5092990;28;20106;-75
2022/05/13 04:20:54;;;;;;;13.88;2.95;;;12.70;99.90;;;;;;5092806;28;20079;-75
2022/05/13 04:23:19;;;;;;;13.35;3.45;;;12.80;99.90;;;;;;5092794;28;20048;-75
2022/05/13 04:25:46;;;;;;;14.43;3.33;;;12.80;99.90;;;;;;5092701;28;20384;-75
2022/05/13 04:28:11;;;;;;;11.82;3.40;;;12.80;99.90;;;;;;5074960;28;20044;-76
2022/05/13 04:30:37;;;;;;;11.68;2.83;;;12.80;99.90;;;;;;5092834;28;20044;-75
2022/05/13 04:33:04;;;;;;;11.32;3.13;;;12.80;99.90;;;;;;5092623;28;20036;-76
2022/05/13 04:35:30;;;;;;;10.80;2.67;;;12.80;99.90;;;;;;5074767;28;20048;-75
2022/05/13 04:37:56;;;;;;;11.02;3.38;;;12.70;99.90;;;;;;5089475;28;20386;-75
2022/05/13 04:40:22;;;;;;;6.10;2.10;;;12.80;99.90;;;;;;5092434;28;20047;-75
2022/05/13 04:42:51;;;;;;;8.70;2.65;;;12.70;99.90;;;;;;5092442;28;20317;-75
2022/05/13 04:45:25;;;;;;;7.85;2.47;;;12.70;99.90;;;;;;5092477;28;20097;-74
2022/05/13 04:50:59;;;;;;;14.50;3.10;;;12.80;99.90;;;;;;5092169;28;20080;-75
2022/05/13 04:53:29;;;;;;;10.20;2.40;;;12.80;99.90;;;;;;5074924;28;20071;-76
2022/05/13 04:55:56;;;;;;;8.50;2.40;;;12.80;99.90;;;;;;5092513;28;20043;-76
2022/05/13 04:58:22;;;;;;;8.23;2.40;;;12.80;99.90;;;;;;5092263;28;20380;-75
2022/05/13 05:00:50;;;;;;;8.73;2.38;;;12.80;99.90;;;;;;5092435;28;20436;-75
2022/05/13 05:03:17;;;;;;;6.93;2.00;;;12.80;99.90;;;;;;5074542;28;20556;-74
2022/05/13 05:05:44;;;;;;;10.27;3.03;;;12.90;99.90;;;;;;5074947;28;20047;-75
2022/05/13 05:08:11;;;;;;;9.98;3.05;;;12.90;99.90;;;;;;5074637;28;20040;-75
2022/05/13 05:10:37;;;;;;;9.13;2.35;;;13.00;99.90;;;;;;5092068;28;20437;-75
2022/05/13 05:13:06;;;;;;;8.18;2.38;;;13.00;99.90;;;;;;5074702;28;20044;-76
2022/05/13 05:15:32;;;;;;;10.95;2.70;;;13.10;99.90;;;;;;5091987;28;20044;-75
2022/05/13 05:17:59;;;;;;;10.23;3.05;;;13.10;99.90;;;;;;5092518;28;20036;-75
2022/05/13 05:20:24;;;;;;;7.00;2.13;;;13.20;99.90;;;;;;5092146;28;20048;-75
2022/05/13 05:22:50;;;;;;;8.90;2.08;;;13.20;99.90;;;;;;5074037;28;20113;-76
2022/05/13 05:25:18;;;;;;;5.90;2.10;;;13.20;99.90;;;;;;5074603;28;20142;-75
2022/05/13 05:27:44;;;;;;;7.50;2.35;;;13.20;99.90;;;;;;5092029;28;20078;-75
2022/05/13 05:30:12;;;;;;;6.25;2.10;;;13.30;99.90;;;;;;5091620;28;20048;-76
2022/05/13 05:32:39;;;;;;;6.18;2.00;;;13.30;99.90;;;;;;5092183;28;20126;-75
2022/05/13 05:35:08;;;;;;;10.25;2.75;;;13.40;99.90;;;;;;5092022;28;20054;-74
2022/05/13 05:37:34;;;;;;;7.35;2.67;;;13.40;99.90;;;;;;5074477;28;20138;-75
2022/05/13 05:40:00;;;;;;;8.00;2.10;;;13.40;99.90;;;;;;5057688;28;20230;-75
2022/05/13 05:42:26;;;;;;;10.55;1.85;;;13.50;99.90;;;;;;5091890;28;20144;-76
2022/05/13 05:44:52;;;;;;;9.23;2.50;;;13.50;99.90;;;;;;5092094;28;20052;-76
2022/05/13 05:47:21;;;;;;;9.57;2.53;;;13.60;99.90;;;;;;5092867;28;20449;-75
2022/05/13 05:49:47;;;;;;;8.60;2.10;;;13.60;99.90;;;;;;5095557;28;20493;-76
2022/05/13 05:52:13;;;;;;;8.10;2.22;;;13.60;99.90;;;;;;5095793;28;20419;-75
2022/05/13 05:57:24;;;;;;;6.25;2.25;;;13.70;99.90;;;;;;5075189;28;20474;-75
2022/05/13 05:59:51;;;;;;;7.72;2.20;;;13.70;99.90;;;;;;5072638;28;20047;-76
2022/05/13 06:02:17;;;;;;;8.15;2.58;;;13.60;99.90;;;;;;5058091;28;20044;-75
2022/05/13 06:04:43;;;;;;;10.48;2.47;;;13.60;99.90;;;;;;5075198;28;20044;-75
2022/05/13 06:07:15;;;;;;;5.25;1.70;;;13.60;99.90;;;;;;5075197;28;20051;-74
2022/05/13 06:09:43;;;;;;;6.80;2.20;;;13.70;99.90;;;;;;5057521;28;20508;-76
2022/05/13 06:12:11;;;;;;;5.38;1.77;;;13.70;99.90;;;;;;5060686;28;20048;-78
2022/05/13 06:14:37;;;;;;;12.93;2.45;;;13.70;99.90;;;;;;5077208;28;20084;-76
2022/05/13 06:17:03;;;;;;;7.63;2.40;;;13.70;99.90;;;;;;5058957;28;20477;-76
2022/05/13 06:19:29;;;;;;;6.00;1.92;;;13.80;99.90;;;;;;5075748;28;20043;-75
2022/05/13 06:21:55;;;;;;;7.43;2.45;;;13.70;99.90;;;;;;5058314;28;20049;-75
2022/05/13 06:24:22;;;;;;;7.25;2.40;;;13.80;99.90;;;;;;5076891;28;20098;-75
2022/05/13 06:26:50;;;;;;;8.55;1.73;;;13.70;99.90;;;;;;5077221;28;20402;-74
2022/05/13 06:29:17;;;;;;;12.13;2.35;;;13.80;99.90;;;;;;5077143;28;20044;-74
2022/05/13 06:31:43;;;;;;;11.60;2.00;;;13.80;99.90;;;;;;5077046;28;20128;-76
2022/05/13 06:34:10;;;;;;;9.15;2.45;;;13.80;99.90;;;;;;5076979;28;20132;-75
2022/05/13 06:36:36;;;;;;;7.30;1.70;;;13.80;99.90;;;;;;5076714;28;20055;-75
2022/05/13 06:39:03;;;;;;;7.78;1.95;;;13.80;99.90;;;;;;5076934;28;20108;-76
2022/05/13 06:41:29;;;;;;;5.78;1.65;;;13.90;99.90;;;;;;5076899;28;20361;-76
2022/05/13 06:43:55;;;;;;;5.28;2.03;;;13.90;99.90;;;;;;5076774;28;20044;-76
2022/05/13 06:46:22;;;;;;;6.70;1.73;;;14.00;99.90;;;;;;5076770;28;20047;-76
2022/05/13 06:48:48;;;;;;;10.45;2.90;;;13.90;99.90;;;;;;5077059;28;20098;-75
2022/05/13 06:51:15;;;;;;;7.38;2.08;;;14.00;99.90;;;;;;5076831;28;20051;-78
2022/05/13 06:53:41;;;;;;;5.18;1.63;;;14.00;99.90;;;;;;5059169;28;20079;-76
2022/05/13 06:56:07;;;;;;;6.43;2.10;;;14.00;99.90;;;;;;5088012;28;20080;-76
2022/05/13 06:58:34;;;;;;;6.93;2.05;;;14.20;99.90;;;;;;5096500;28;20057;-78
2022/05/13 07:01:01;;;;;;;6.43;1.83;;;14.60;99.90;;;;;;5096903;28;20035;-77
2022/05/13 07:03:27;;;;;;;5.40;2.35;;;15.00;99.90;;;;;;5096495;28;20508;-76
2022/05/13 07:05:52;;;;;;;7.72;2.60;;;15.30;99.90;;;;;;5079299;28;20086;-76
2022/05/13 07:08:18;;;;;;;10.40;1.98;;;15.40;99.90;;;;;;5062222;28;20047;-77
2022/05/13 07:10:44;;;;;;;6.22;1.52;;;15.40;99.90;;;;;;5097043;28;20047;-76
2022/05/13 07:13:12;;;;;;;5.78;1.67;;;15.40;99.90;;;;;;5079075;28;20449;-78
2022/05/13 07:15:38;;;;;;;8.02;1.70;;;15.50;99.90;;;;;;5095107;28;20093;-76
2022/05/13 07:18:04;;;;;;;5.05;1.52;;;15.60;99.90;;;;;;5074227;28;20039;-78
2022/05/13 07:20:30;;;;;;;6.15;1.65;;;15.60;99.90;;;;;;5095919;28;20740;-77
2022/05/13 07:22:57;;;;;;;6.15;1.35;;;15.80;99.90;;;;;;5084219;28;20052;-77
2022/05/13 07:25:24;;;;;;;8.00;1.48;;;16.00;99.90;;;;;;5076554;28;20087;-77
2022/05/13 07:27:50;;;;;;;6.20;1.98;;;16.20;99.90;;;;;;5076661;28;20040;-78
2022/05/13 07:30:16;;;;;;;5.35;1.35;;;16.50;99.90;;;;;;5078014;28;20048;-76
2022/05/13 07:32:42;;;;;;;5.63;1.70;;;16.70;99.90;;;;;;5095982;28;20052;-76
2022/05/13 07:35:10;;;;;;;7.32;1.40;;;16.80;99.90;;;;;;5093856;28;20500;-76
2022/05/13 07:37:37;;;;;;;6.28;1.67;;;16.90;99.90;;;;;;5095837;28;20047;-77
2022/05/13 07:42:49;;;;;;;9.88;2.20;;;17.20;99.90;;;;;;5096009;28;20054;-78
2022/05/13 07:45:15;;;;;;;9.68;1.40;;;17.30;99.90;;;;;;5096301;28;20354;-77
2022/05/13 07:47:42;;;;;;;3.53;1.33;;;17.40;99.90;;;;;;5078685;28;20104;-75
2022/05/13 07:50:14;;;;;;;5.07;1.48;;;17.50;99.90;;;;;;5077980;28;20510;-77
2022/05/13 07:52:41;;;;;;;5.43;1.35;;;17.20;99.90;;;;;;5088560;28;20466;-77
2022/05/13 07:55:10;;;;;;;4.63;1.23;;;17.00;99.90;;;;;;5085020;28;20042;-77
2022/05/13 07:57:41;;;;;;;7.13;1.58;;;17.10;99.90;;;;;;5075670;28;20128;-76
2022/05/13 08:02:55;;;;;;;5.75;1.60;;;17.40;99.90;;;;;;5095491;28;20097;-76
2022/05/13 08:05:22;;;;;;;7.97;1.73;;;17.50;99.90;;;;;;5095196;28;20342;-76
2022/05/13 08:07:48;;;;;;;7.13;1.63;;;17.30;99.90;;;;;;5095809;28;20044;-76
2022/05/13 08:10:14;;;;;;;7.20;1.88;;;16.90;99.90;;;;;;5094504;28;20453;-76
2022/05/13 08:12:40;;;;;;;4.53;1.52;;;16.60;99.90;;;;;;5075434;28;20357;-75
2022/05/13 08:15:06;;;;;;;3.65;1.85;;;16.30;99.90;;;;;;5058028;28;20040;-76
2022/05/13 08:17:35;;;;;;;6.38;1.92;;;16.30;99.90;;;;;;5075417;28;20074;-76
2022/05/13 08:20:03;;;;;;;6.85;1.48;;;16.50;99.90;;;;;;5074879;28;20083;-75
2022/05/13 08:22:28;;;;;;;5.43;1.63;;;16.60;99.90;;;;;;5090477;28;20048;-74
2022/05/13 08:24:54;;;;;;;5.53;1.45;;;16.80;99.90;;;;;;5095304;28;20443;-77
2022/05/13 08:27:20;;;;;;;4.03;1.70;;;17.10;99.90;;;;;;5095557;28;20334;-76
2022/05/13 08:29:46;;;;;;;4.15;1.35;;;17.50;99.90;;;;;;5095202;28;20051;-77
2022/05/13 08:32:11;;;;;;;6.78;1.67;;;17.60;99.90;;;;;;5095482;28;20074;-76
2022/05/13 08:34:37;;;;;;;5.72;1.40;;;17.50;99.90;;;;;;5077542;28;20040;-76
2022/05/13 08:37:03;;;;;;;4.85;1.20;;;17.40;99.90;;;;;;5092873;28;20040;-76
2022/05/13 08:39:29;;;;;;;9.20;2.10;;;17.20;99.90;;;;;;5093071;28;20058;-77
2022/05/13 08:42:12;;;;;;;6.75;2.05;;;17.30;99.90;;;;;;5075160;28;20115;-77
2022/05/13 08:44:39;;;;;;;6.97;2.25;;;17.40;99.90;;;;;;5092965;28;20074;-83
2022/05/13 08:47:22;;;;;;;6.72;2.42;;;17.30;99.90;;;;;;5093764;28;20028;-86
2022/05/13 08:50:01;;;;;;;6.18;1.58;;;17.50;99.90;;;;;;5075612;28;20032;-77
2022/05/13 08:53:08;;;;;;;4.75;1.40;;;17.80;99.90;;;;;;5072793;28;20044;-78
2022/05/13 08:56:04;;;;;;;6.38;1.60;;;17.80;99.90;;;;;;5025991;28;20044;-76
2022/05/13 08:58:49;;;;;;;5.68;1.30;;;17.40;99.90;;;;;;5081743;28;20051;-74
2022/05/13 09:01:27;;;;;;;4.95;1.35;;;17.10;99.90;;;;;;5092383;28;20141;-76
2022/05/13 09:03:59;;;;;;;7.32;1.98;;;16.80;99.90;;;;;;5074714;28;20394;-76
2022/05/13 09:06:36;;;;;;;6.55;1.70;;;16.50;99.90;;;;;;5092613;28;20040;-79
2022/05/13 09:09:04;;;;;;;5.15;1.50;;;16.30;99.90;;;;;;5092551;28;20055;-77
2022/05/13 09:12:00;;;;;;;5.90;1.63;;;16.20;99.90;;;;;;5092336;28;20085;-77
2022/05/13 09:14:43;;;;;;;14.68;2.15;;;16.10;99.90;;;;;;5092393;28;20444;-78
2022/05/13 09:17:33;;;;;;;5.28;1.88;;;16.10;99.90;;;;;;5092395;28;20040;-76
2022/05/13 09:20:00;;;;;;;;;;;15.90;99.90;;;;;;5093227;28;20050;-78
2022/05/13 09:22:49;;;;;;;7.68;1.63;;;15.80;99.90;;;;;;5077155;28;19982;-78
2022/05/13 09:25:36;;;;;;;8.13;1.92;;;15.80;99.90;;;;;;5096870;28;20066;-77
2022/05/13 09:28:13;;;;;;;7.65;1.35;;;15.80;99.90;;;;;;5096492;28;20094;-78
2022/05/13 09:30:49;;;;;;;8.57;2.25;;;15.90;99.90;;;;;;5096731;28;20050;-77
2022/05/13 09:33:30;;;;;;;5.82;1.50;;;16.00;99.90;;;;;;5096389;28;20443;-77
2022/05/13 09:36:01;;;;;;;8.60;2.38;;;16.20;99.90;;;;;;5115686;28;20040;-76
2022/05/13 09:38:32;;;;;;;8.38;1.88;;;16.60;99.90;;;;;;5116865;28;20039;-78
2022/05/13 09:41:02;;;;;;;5.25;1.90;;;17.20;99.90;;;;;;5116767;28;20044;-77
2022/05/13 09:43:52;;;;;;;7.40;1.67;;;17.50;99.90;;;;;;5116923;28;20113;-76
2022/05/13 09:46:31;;;;;;;5.80;1.45;;;17.60;99.90;;;;;;5098930;28;20043;-76
2022/05/13 09:49:12;;;;;;;5.85;1.75;;;17.70;99.90;;;;;;5098651;28;20039;-77
2022/05/13 09:51:55;;;;;;;5.50;1.60;;;17.70;99.90;;;;;;5116392;28;20126;-76
2022/05/13 09:54:31;;;;;;;4.95;1.40;;;17.90;99.90;;;;;;5116512;28;20116;-76
2022/05/13 09:57:11;;;;;;;7.78;2.10;;;17.70;99.90;;;;;;5098515;28;20059;-77
2022/05/13 09:59:44;;;;;;;6.38;1.90;;;17.50;99.90;;;;;;5096416;28;20036;-77
2022/05/13 10:02:24;;;;;;;7.05;1.77;;;17.60;99.90;;;;;;5095856;28;20047;-78
2022/05/13 10:04:53;;;;;;;5.78;1.50;;;17.70;99.90;;;;;;5078221;28;20434;-76
2022/05/13 10:07:21;;;;;;;6.80;1.70;;;17.70;99.90;;;;;;5096070;28;20044;-77
2022/05/13 10:15:42;;;;;;;8.80;2.22;;;17.80;99.90;;;;;;5096002;28;20187;-77
2022/05/13 10:18:24;;;;;;;8.95;2.20;;;17.90;99.90;;;;;;5095685;28;20372;-77
2022/05/13 10:20:54;;;;;;;6.32;1.92;;;18.10;99.90;;;;;;5077664;28;20043;-76
2022/05/13 10:23:37;;;;;;;5.78;1.65;;;18.40;99.90;;;;;;5095555;28;20048;-77
2022/05/13 10:26:18;;;;;;;7.15;2.33;;;18.50;99.90;;;;;;5093306;28;20126;-76
2022/05/13 10:28:55;;;;;;;7.22;2.15;;;18.60;99.90;;;;;;5095115;28;20056;-77
2022/05/13 10:31:25;;;;;;;7.72;2.20;;;19.00;99.90;;;;;;5077387;28;20077;-76
2022/05/13 10:34:13;;;;;;;7.20;2.00;;;19.40;99.90;;;;;;5094565;28;20127;-77
2022/05/13 10:37:00;;;;;;;6.38;1.80;;;19.50;99.90;;;;;;5077547;28;20052;-76
2022/05/13 10:39:53;;;;;;;11.57;1.80;;;19.50;99.90;;;;;;5077400;28;20075;-76
2022/05/13 10:42:28;;;;;;;5.38;1.67;;;19.50;99.90;;;;;;5077413;28;20048;-77
2022/05/13 10:45:12;;;;;;;6.95;2.28;;;19.40;99.90;;;;;;5092534;28;20457;-77
2022/05/13 10:48:11;;;;;;;5.07;1.60;;;19.20;99.30;;;;;;5094698;28;20044;-77
2022/05/13 10:51:04;;;;;;;7.85;1.70;;;19.10;99.90;;;;;;5094933;28;20086;-78
2022/05/13 10:54:08;;;;;;;6.10;1.60;;;19.00;99.10;;;;;;5094789;28;20048;-77
2022/05/13 10:56:37;;;;;;;6.43;2.25;;;19.10;99.30;;;;;;5094728;28;20036;-78
2022/05/13 10:59:41;;;;;;;6.32;1.70;;;19.10;99.50;;;;;;5094733;28;20082;-76
2022/05/13 11:02:33;;;;;;;5.32;1.73;;;19.40;99.80;;;;;;5093216;28;20048;-76
2022/05/13 11:05:11;;;;;;;7.97;1.85;;;19.60;99.30;;;;;;5094470;28;20462;-77
2022/05/13 11:07:59;;;;;;;4.30;1.27;;;19.80;99.50;;;;;;5076989;28;20044;-77
2022/05/13 11:10:37;;;;;;;4.82;1.45;;;20.00;97.50;;;;;;5094453;28;20040;-77
2022/05/13 11:13:19;;;;;;;4.00;1.38;;;20.10;97.60;;;;;;5094467;28;20051;-79
2022/05/13 11:15:58;;;;;;;6.68;1.35;;;20.30;97.50;;;;;;5094363;28;20446;-76
2022/05/13 11:18:24;;;;;;;4.38;1.27;;;20.40;95.90;;;;;;5076725;28;20048;-77
2022/05/13 11:21:05;;;;;;;4.43;1.17;;;20.30;95.20;;;;;;5094053;28;20055;-78
2022/05/13 11:25:54;;;;;;;5.60;2.03;;;20.20;94.70;;;;;;5094266;28;20051;-77
2022/05/13 11:27:19;;;;;;;5.63;1.25;;;20.10;93.20;;;;;;5094160;28;20040;-77
2022/05/13 11:30:13;;;;;;;4.88;1.73;;;19.90;92.90;;;;;;5020194;28;20056;-77
2022/05/13 11:32:44;;;;;;;4.80;1.00;;;19.60;92.90;;;;;;5093650;28;20105;-77
2022/05/13 11:35:39;;;;;;;6.72;1.45;;;19.60;92.90;;;;;;5076292;28;20055;-76
2022/05/13 11:38:18;;;;;;;3.78;1.48;;;19.80;92.70;;;;;;5093701;28;20078;-77
2022/05/13 11:40:56;;;;;;;3.22;1.45;;;19.80;91.70;;;;;;5114222;28;20452;-78
2022/05/13 11:43:47;;;;;;;5.60;1.58;;;19.90;92.90;;;;;;5114446;28;20055;-80
2022/05/13 11:46:44;;;;;;;6.35;1.63;;;20.00;93.60;;;;;;5113099;28;20047;-78
2022/05/13 11:49:35;;;;;;;5.88;1.40;;;20.20;92.60;;;;;;5114039;28;20079;-77
2022/05/13 11:52:27;;;;;;;8.82;1.60;;;20.10;92.60;;;;;;5114092;28;20039;-76
2022/05/13 11:55:17;;;;;;;8.95;1.75;;;20.20;92.90;;;;;;5102265;28;20117;-77
2022/05/13 11:57:59;;;;;;;6.35;1.58;;;20.20;90.00;;;;;;5094061;28;20449;-84
2022/05/13 12:00:31;;;;;;;5.43;1.65;;;20.10;91.50;;;;;;5061071;28;20415;-77
2022/05/13 12:03:08;;;;;;;12.07;1.90;;;20.00;91.40;;;;;;5093872;28;20048;-79
2022/05/13 12:06:16;;;;;;;7.53;1.90;;;19.80;90.20;;;;;;5093593;28;20040;-77
2022/05/13 12:08:59;;;;;;;5.55;1.80;;;19.60;91.40;;;;;;5075290;28;20056;-76
2022/05/13 12:11:53;;;;;;;6.57;2.00;;;19.50;91.50;;;;;;5093616;28;20040;-77
2022/05/13 12:14:30;;;;;;;6.32;1.73;;;19.50;92.10;;;;;;5075721;28;20040;-77
2022/05/13 12:17:08;;;;;;;6.45;1.73;;;19.60;92.20;;;;;;5075800;28;20078;-78
2022/05/13 12:19:43;;;;;;;10.88;2.22;;;19.70;91.80;;;;;;5093190;28;20036;-77
2022/05/13 12:22:19;;;;;;;9.25;2.00;;;19.60;91.30;;;;;;5093183;28;20098;-77
2022/05/13 12:25:11;;;;;;;7.72;2.17;;;19.40;92.50;;;;;;5075574;28;20326;-77
2022/05/13 12:28:16;;;;;;;9.52;2.28;;;19.60;93.20;;;;;;5093093;28;20070;-77
2022/05/13 12:30:44;;;;;;;9.57;2.22;;;19.80;92.80;;;;;;5075120;28;20094;-78
2022/05/13 12:33:24;;;;;;;12.10;2.63;;;19.80;92.40;;;;;;5092770;28;20523;-76
2022/05/13 12:39:03;;;;;;;11.93;2.20;;;19.80;93.40;;;;;;5092994;28;20055;-78
2022/05/13 12:41:41;;;;;;;7.20;2.55;;;19.80;92.70;;;;;;5093082;28;20048;-77
2022/05/13 12:44:13;;;;;;;5.90;2.05;;;19.80;93.00;;;;;;5092903;28;20086;-78
2022/05/13 12:46:52;;;;;;;5.00;1.80;;;19.90;92.60;;;;;;5075188;28;20040;-78
2022/05/13 12:49:25;;;;;;;10.20;2.10;;;19.90;91.00;;;;;;5092772;28;20147;-78
2022/05/13 12:52:17;;;;;;;5.95;1.92;;;19.80;91.80;;;;;;5075168;28;20439;-78
2022/05/13 12:55:01;;;;;;;8.73;1.70;;;19.70;90.90;;;;;;5092814;28;20078;-77
2022/05/13 12:57:47;;;;;;;5.40;1.52;;;19.80;91.20;;;;;;5071992;28;20446;-78
2022/05/13 13:00:34;;;;;;;5.03;1.35;;;20.10;91.70;;;;;;5055055;28;20390;-77
2022/05/13 13:03:05;;;;;;;9.63;2.45;;;20.10;89.80;;;;;;5061750;28;20351;-75
2022/05/13 13:05:34;;;;;;;5.78;1.58;;;20.00;87.00;;;;;;5069043;28;20040;-78
2022/05/13 13:08:18;;;;;;;5.88;1.77;;;19.80;87.50;;;;;;5069436;28;20080;-78
2022/05/13 13:10:57;;;;;;;7.38;2.25;;;19.60;89.80;;;;;;5072293;28;20079;-78
2022/05/13 13:14:04;;;;;;;8.27;1.67;;;19.60;87.80;;;;;;5072427;28;20127;-77
2022/05/13 13:17:09;;;;;;;5.95;1.50;;;19.30;87.30;;;;;;5042188;28;20397;-77
2022/05/13 13:19:36;;;;;;;6.68;1.83;;;19.20;89.50;;;;;;5037908;28;20052;-77
2022/05/13 13:22:11;;;;;;;7.75;2.30;;;19.00;88.90;;;;;;5072342;28;20129;-76
2022/05/13 13:24:40;;;;;;;8.40;1.80;;;18.80;88.10;;;;;;5072029;28;20052;-78
2022/05/13 13:27:13;;;;;;;12.25;2.38;;;18.50;90.00;;;;;;5072266;28;20382;-77
2022/05/13 13:29:41;;;;;;;7.22;1.98;;;18.40;90.50;;;;;;5072135;28;20044;-79
2022/05/13 13:32:14;;;;;;;8.15;1.80;;;18.30;90.60;;;;;;5054579;28;20040;-76
2022/05/13 13:34:54;;;;;;;6.95;2.00;;;18.10;90.80;;;;;;5071720;28;20358;-75
2022/05/13 13:37:28;;;;;;;10.00;2.40;;;18.00;91.50;;;;;;5072283;28;20098;-78
2022/05/13 13:39:56;;;;;;;9.45;2.00;;;18.00;92.50;;;;;;5054490;28;20075;-77
2022/05/13 13:42:22;;;;;;;8.75;1.88;;;18.10;92.80;;;;;;5068956;28;20040;-76